CheckWX is a tool to help pilots better visualize weather data.  It is not intended as a substitute for an official pre-flight weather briefing.

15:04:27 UTC

KHWD METAR
Hayward Executive Airport
Hayward, California, USA
Current

10 mins ago

KHWD 231454Z 16006KT 9SM OVC015 14/11 A2980 RMK AO2 SLP102 T01440111 53007
Observed
May-23 @ 14:54 UTC
Wind
  • 160° at 6 KTS
Visibility
9 SM
Flight Rules
MVFR
Cloud Levels
  • Overcast at 1,500' AGL
Temperature
14°C / 57°F
Dewpoint
11°C / 52°F
Humidity
82%
Altimeter
29.8" Hg
Pressure
1009.12 hPa
Previous

1 hour ago

KHWD 231354Z AUTO 00000KT 8SM OVC012 14/12 A2979 RMK AO2 SLP097 T01390117
Observed
May-23 @ 13:54 UTC
Visibility
8 SM
Flight Rules
MVFR
Cloud Levels
  • Overcast at 1,200' AGL
Temperature
14°C / 57°F
Dewpoint
12°C / 54°F
Humidity
88%
Altimeter
29.79" Hg
Pressure
1008.82 hPa
Previous

2 hours ago

KHWD 231327Z AUTO 00000KT 8SM OVC014 13/12 A2978 RMK AO2 T01330117
Observed
May-23 @ 13:27 UTC
Visibility
8 SM
Flight Rules
MVFR
Cloud Levels
  • Overcast at 1,400' AGL
Temperature
13°C / 55°F
Dewpoint
12°C / 54°F
Humidity
94%
Altimeter
29.78" Hg
Pressure
1008.42 hPa